Time;durP1;ratioP1;P1;durP2;ratioP2;P2;SDS_P1;SDS_P2;PMS_P1;PMS_P2;Temp;Humidity;BMP_temperature;BMP_pressure;BME280_temperature;BME280_humidity;BME280_pressure;Samples;Min_cycle;Max_cycle;Signal;HPM_P1;HPM_P2
2022/07/17 00:00:58;;;;;;;6.80;4.70;;;;;;;25.16;51.70;100379.66;117145;1187;22915;-59
2022/07/17 00:03:25;;;;;;;7.10;4.20;;;;;;;25.10;51.74;100379.02;117021;1188;21855;-59
2022/07/17 00:05:53;;;;;;;5.70;4.30;;;;;;;25.02;51.71;100383.38;116957;1187;21970;-59
2022/07/17 00:08:20;;;;;;;6.10;4.60;;;;;;;24.84;51.56;100390.55;117186;1188;23441;-59
2022/07/17 00:10:47;;;;;;;6.60;4.80;;;;;;;24.62;51.89;100394.23;117320;1186;22915;-60
2022/07/17 00:13:14;;;;;;;8.20;4.70;;;;;;;24.50;51.95;100398.19;117315;1186;22619;-60
2022/07/17 00:15:41;;;;;;;7.20;5.00;;;;;;;24.44;52.32;100400.01;117278;1186;23544;-59
2022/07/17 00:18:08;;;;;;;8.10;5.30;;;;;;;24.35;52.26;100405.95;117311;1186;22972;-59
2022/07/17 00:20:35;;;;;;;5.80;5.20;;;;;;;24.29;52.51;100410.33;117244;1185;23700;-59
2022/07/17 00:23:02;;;;;;;9.40;5.90;;;;;;;24.26;52.55;100410.26;117190;1185;23449;-59
2022/07/17 00:25:32;;;;;;;7.80;6.00;;;;;;;24.23;52.68;100410.08;117159;1182;23109;-60
2022/07/17 00:27:59;;;;;;;8.20;5.40;;;;;;;24.19;52.71;100412.50;117174;1188;21867;-59
2022/07/17 00:30:26;;;;;;;6.90;5.60;;;;;;;24.12;52.77;100416.58;117178;1182;21858;-57
2022/07/17 00:32:53;;;;;;;7.00;5.90;;;;;;;24.05;52.89;100417.76;116990;1187;23545;-59
2022/07/17 00:35:21;;;;;;;8.00;5.70;;;;;;;24.00;52.96;100418.64;117107;1187;23688;-59
2022/07/17 00:37:48;;;;;;;6.70;5.10;;;;;;;23.95;53.03;100419.98;117096;1185;22181;-59
2022/07/17 00:40:20;;;;;;;7.40;5.50;;;;;;;23.88;53.16;100427.98;117116;1182;23547;-59
2022/07/17 00:42:47;;;;;;;8.60;5.80;;;;;;;23.80;53.11;100430.83;117334;1185;22666;-59
2022/07/17 00:45:14;;;;;;;8.50;5.60;;;;;;;23.77;53.25;100430.89;117331;1186;21964;-59
2022/07/17 00:47:48;;;;;;;7.50;5.30;;;;;;;23.77;53.20;100421.21;117250;1186;21864;-59
2022/07/17 00:50:15;;;;;;;7.80;6.00;;;;;;;23.79;53.09;100418.19;117309;1182;21943;-59
2022/07/17 00:52:42;;;;;;;7.60;5.30;;;;;;;23.82;53.25;100418.54;117270;1188;21887;-59
2022/07/17 00:55:10;;;;;;;8.20;5.10;;;;;;;23.84;53.09;100419.33;117328;1185;23544;-59
2022/07/17 00:57:57;;;;;;;8.40;5.20;;;;;;;23.85;53.01;100415.95;117045;1187;21856;-59
2022/07/17 01:00:24;;;;;;;7.00;5.30;;;;;;;23.85;52.92;100419.01;117303;1181;23698;-59
2022/07/17 01:02:52;;;;;;;6.20;5.00;;;;;;;23.84;52.83;100414.44;117303;1185;21967;-59
2022/07/17 01:05:20;;;;;;;5.40;4.70;;;;;;;23.83;52.75;100420.29;117092;1188;23711;-59
2022/07/17 01:07:47;;;;;;;6.90;5.20;;;;;;;23.83;52.66;100422.39;117192;1188;22937;-58
2022/07/17 01:10:16;;;;;;;8.40;4.90;;;;;;;23.85;52.46;100423.73;117281;1186;23560;-58
2022/07/17 01:12:44;;;;;;;10.80;5.20;;;;;;;23.86;52.48;100423.46;117159;1182;21854;-59
2022/07/17 01:15:11;;;;;;;7.80;4.90;;;;;;;23.87;52.37;100421.81;117163;1182;22619;-59
2022/07/17 01:17:38;;;;;;;8.30;4.80;;;;;;;23.85;52.15;100421.04;117036;1182;23481;-59
2022/07/17 01:20:06;;;;;;;5.50;4.60;;;;;;;23.81;52.30;100418.45;117317;1186;21863;-59
2022/07/17 01:22:43;;;;;;;6.10;4.70;;;;;;;23.78;52.23;100419.38;117376;1182;21849;-59
2022/07/17 01:25:10;;;;;;;10.20;5.50;;;;;;;23.75;52.23;100410.40;117054;1185;22918;-59
2022/07/17 01:27:37;;;;;;;8.00;4.40;;;;;;;23.75;52.31;100409.88;117262;1186;23569;-59
2022/07/17 01:30:05;;;;;;;9.00;4.30;;;;;;;23.75;52.05;100414.71;117300;1182;23566;-59
2022/07/17 01:32:34;;;;;;;9.30;4.00;;;;;;;23.69;51.77;100416.86;117266;1185;22796;-59
2022/07/17 01:35:02;;;;;;;5.10;4.60;;;;;;;23.67;51.94;100417.95;117056;1186;21891;-59
2022/07/17 01:37:29;;;;;;;7.30;4.00;;;;;;;23.66;51.79;100421.36;117111;1185;22622;-59
2022/07/17 01:39:56;;;;;;;7.40;4.50;;;;;;;23.66;51.77;100419.63;117338;1185;22957;-58
2022/07/17 01:42:23;;;;;;;6.00;4.00;;;;;;;23.66;51.67;100411.17;117354;1185;23544;-59
2022/07/17 01:44:50;;;;;;;6.00;4.20;;;;;;;23.69;51.74;100406.16;117357;1183;22985;-59
2022/07/17 01:47:17;;;;;;;6.40;4.20;;;;;;;23.69;51.42;100401.65;117422;1182;22911;-59
2022/07/17 01:49:49;;;;;;;8.00;3.90;;;;;;;23.68;51.20;100400.52;117394;1182;23544;-59
2022/07/17 01:52:16;;;;;;;8.60;4.20;;;;;;;23.64;51.25;100401.30;117067;1186;22725;-59
2022/07/17 01:54:43;;;;;;;8.40;3.90;;;;;;;23.60;51.32;100402.25;117299;1183;23493;-60
2022/07/17 01:57:11;;;;;;;6.10;3.40;;;;;;;23.59;51.39;100405.54;117368;1185;23535;-59
2022/07/17 01:59:38;;;;;;;5.30;3.60;;;;;;;23.57;51.30;100408.38;117358;1185;24212;-59
2022/07/17 02:02:06;;;;;;;6.80;3.80;;;;;;;23.55;51.00;100413.54;117367;1185;22510;-60
2022/07/17 02:04:34;;;;;;;7.90;4.20;;;;;;;23.53;51.12;100415.81;117207;1185;24137;-59
2022/07/17 02:07:01;;;;;;;6.00;3.80;;;;;;;23.50;50.92;100421.16;117361;1186;23539;-60
2022/07/17 02:09:28;;;;;;;7.00;4.30;;;;;;;23.46;50.89;100424.80;117342;1184;23639;-59
2022/07/17 02:11:55;;;;;;;5.70;3.60;;;;;;;23.43;50.93;100421.30;117285;1182;23544;-59
2022/07/17 02:14:22;;;;;;;5.50;4.10;;;;;;;23.39;50.89;100418.49;117306;1185;23535;-59
2022/07/17 02:16:49;;;;;;;4.90;3.70;;;;;;;23.36;50.70;100422.14;117175;1188;24267;-59
2022/07/17 02:19:16;;;;;;;5.80;4.50;;;;;;;23.31;50.80;100422.80;117260;1184;23699;-59
2022/07/17 02:21:43;;;;;;;5.60;3.90;;;;;;;23.26;50.78;100425.04;117038;1188;22811;-59
2022/07/17 02:24:10;;;;;;;4.50;4.00;;;;;;;23.22;50.78;100429.96;117352;1183;22319;-59
2022/07/17 02:26:37;;;;;;;6.00;3.90;;;;;;;23.16;50.64;100427.47;117342;1182;23544;-59
2022/07/17 02:29:04;;;;;;;6.00;4.00;;;;;;;23.10;50.69;100433.04;117251;1186;21881;-59
2022/07/17 02:31:31;;;;;;;6.10;4.00;;;;;;;23.03;50.59;100440.46;117332;1185;23688;-59
2022/07/17 02:33:59;;;;;;;4.30;3.70;;;;;;;22.95;50.68;100459.05;117370;1182;23544;-58
2022/07/17 02:36:25;;;;;;;8.40;3.40;;;;;;;22.77;50.84;100463.35;117311;1181;21926;-59
2022/07/17 02:38:53;;;;;;;10.10;3.90;;;;;;;22.60;50.86;100460.27;117329;1186;21854;-59
2022/07/17 02:41:20;;;;;;;7.70;3.70;;;;;;;22.51;51.31;100470.65;117241;1185;23541;-59
2022/07/17 02:43:47;;;;;;;5.60;3.50;;;;;;;22.47;51.65;100473.42;117360;1186;23704;-59
2022/07/17 02:46:14;;;;;;;7.60;3.70;;;;;;;22.47;51.41;100462.33;117264;1183;22765;-58
2022/07/17 02:48:41;;;;;;;6.20;3.80;;;;;;;22.51;51.40;100461.21;117157;1182;21847;-59
2022/07/17 02:51:09;;;;;;;8.90;4.40;;;;;;;22.55;51.32;100461.33;117353;1184;21844;-59
2022/07/17 02:53:36;;;;;;;5.60;3.60;;;;;;;22.58;51.40;100460.05;117343;1186;23615;-60
2022/07/17 02:56:03;;;;;;;7.40;4.30;;;;;;;22.62;51.52;100461.45;117227;1182;23545;-59
2022/07/17 02:58:30;;;;;;;8.50;4.10;;;;;;;22.66;51.44;100461.70;117084;1188;23547;-60
2022/07/17 03:00:57;;;;;;;5.30;3.90;;;;;;;22.75;51.34;100462.26;117307;1186;22919;-58
2022/07/17 03:03:24;;;;;;;5.20;3.30;;;;;;;22.83;51.19;100469.63;117325;1188;22889;-58
2022/07/17 03:05:51;;;;;;;4.50;3.60;;;;;;;22.89;51.21;100470.29;117389;1186;21951;-58
2022/07/17 03:08:18;;;;;;;9.00;4.30;;;;;;;22.97;51.24;100468.70;117315;1186;22922;-60
2022/07/17 03:10:45;;;;;;;14.90;4.20;;;;;;;23.07;51.18;100463.63;117308;1182;23543;-58
2022/07/17 03:13:12;;;;;;;8.80;3.60;;;;;;;23.15;51.06;100466.89;117342;1185;22985;-59
2022/07/17 03:15:39;;;;;;;8.20;3.70;;;;;;;23.21;50.92;100467.77;117249;1186;21855;-61
2022/07/17 03:18:06;;;;;;;10.70;4.30;;;;;;;23.27;51.07;100464.22;117317;1184;22626;-59
2022/07/17 03:20:33;;;;;;;5.20;3.80;;;;;;;23.31;50.93;100461.11;117281;1184;22702;-59
2022/07/17 03:23:00;;;;;;;6.40;4.30;;;;;;;23.32;51.01;100464.77;117299;1182;22912;-60
2022/07/17 03:25:27;;;;;;;4.80;3.00;;;;;;;23.34;50.91;100466.80;117287;1185;22967;-60
2022/07/17 03:27:54;;;;;;;7.20;4.00;;;;;;;23.35;50.79;100464.77;117322;1185;23563;-59
2022/07/17 03:30:21;;;;;;;5.00;3.40;;;;;;;23.37;50.79;100472.91;117368;1186;21947;-59
2022/07/17 03:32:48;;;;;;;4.80;3.30;;;;;;;23.38;50.94;100472.82;117258;1186;21857;-60
2022/07/17 03:35:16;;;;;;;4.80;3.40;;;;;;;23.41;50.90;100469.36;117385;1183;23609;-60
2022/07/17 03:37:44;;;;;;;6.70;3.50;;;;;;;23.44;50.85;100473.11;117346;1186;21926;-59
2022/07/17 03:40:11;;;;;;;5.30;3.70;;;;;;;23.46;50.77;100475.35;117341;1183;23544;-59
2022/07/17 03:42:38;;;;;;;4.50;3.60;;;;;;;23.47;50.85;100476.55;117316;1186;22625;-59
2022/07/17 03:45:07;;;;;;;4.60;3.40;;;;;;;23.48;50.82;100480.41;117349;1186;21854;-60
2022/07/17 03:47:34;;;;;;;9.30;4.00;;;;;;;23.47;50.97;100491.20;117394;1186;21854;-60
2022/07/17 03:50:01;;;;;;;12.00;3.50;;;;;;;23.46;50.83;100499.71;117256;1186;24693;-59
2022/07/17 03:52:28;;;;;;;4.70;3.20;;;;;;;23.45;50.86;100510.64;117239;1185;22067;-59
2022/07/17 03:54:56;;;;;;;4.70;3.50;;;;;;;23.49;50.67;100521.73;117091;1188;21847;-59
2022/07/17 03:57:23;;;;;;;5.90;3.80;;;;;;;23.51;50.72;100522.14;117282;1185;23544;-60
2022/07/17 03:59:50;;;;;;;6.50;3.30;;;;;;;23.52;50.57;100527.95;117246;1185;21921;-60
2022/07/17 04:02:17;;;;;;;7.00;3.30;;;;;;;23.53;50.59;100533.11;117238;1182;22641;-59
2022/07/17 04:04:44;;;;;;;4.30;3.20;;;;;;;23.54;50.66;100533.40;117357;1186;22088;-60
2022/07/17 04:07:26;;;;;;;5.20;3.30;;;;;;;23.54;50.53;100533.59;117342;1186;21851;-59
2022/07/17 04:09:55;;;;;;;6.20;3.10;;;;;;;23.54;50.62;100532.30;117446;1186;21847;-60
2022/07/17 04:12:22;;;;;;;5.00;3.00;;;;;;;23.56;50.65;100523.23;117311;1186;22157;-60
2022/07/17 04:14:49;;;;;;;7.20;3.20;;;;;;;23.58;50.66;100525.08;117254;1185;21955;-60
2022/07/17 04:17:16;;;;;;;6.30;3.30;;;;;;;23.58;50.57;100523.84;117243;1185;23544;-60
2022/07/17 04:19:43;;;;;;;5.90;3.20;;;;;;;23.55;50.34;100529.58;117341;1182;22994;-61
2022/07/17 04:22:11;;;;;;;6.00;2.80;;;;;;;23.50;50.27;100530.08;117266;1185;22319;-61
2022/07/17 04:24:38;;;;;;;5.10;2.90;;;;;;;23.47;50.43;100530.77;117329;1185;21870;-61
2022/07/17 04:27:05;;;;;;;4.50;3.20;;;;;;;23.46;50.34;100531.55;117173;1187;22918;-60
2022/07/17 04:29:32;;;;;;;7.00;3.20;;;;;;;23.45;50.35;100528.02;117208;1188;21853;-60
2022/07/17 04:31:59;;;;;;;4.50;2.80;;;;;;;23.45;50.32;100526.98;117267;1182;22903;-59
2022/07/17 04:34:26;;;;;;;4.60;3.20;;;;;;;23.45;50.29;100526.06;117295;1186;23544;-59
2022/07/17 04:36:54;;;;;;;5.20;3.10;;;;;;;23.47;50.16;100531.83;117359;1185;21951;-59
2022/07/17 04:39:21;;;;;;;7.50;2.90;;;;;;;23.54;50.22;100532.82;117275;1184;23320;-60
2022/07/17 04:41:48;;;;;;;4.60;2.80;;;;;;;23.64;50.20;100534.56;117418;1183;21845;-61
2022/07/17 04:44:15;;;;;;;4.50;2.70;;;;;;;23.72;50.00;100534.00;117308;1182;23544;-60
2022/07/17 04:46:42;;;;;;;5.70;2.70;;;;;;;23.79;49.90;100534.98;117367;1184;22809;-61
2022/07/17 04:49:09;;;;;;;4.80;2.90;;;;;;;23.85;49.86;100539.29;117202;1187;21910;-60
2022/07/17 04:51:36;;;;;;;6.10;3.00;;;;;;;23.88;49.82;100541.55;117165;1185;23544;-59
2022/07/17 04:54:03;;;;;;;7.20;2.70;;;;;;;23.90;49.71;100541.65;117266;1186;22620;-60
2022/07/17 04:56:30;;;;;;;6.40;3.10;;;;;;;23.90;49.73;100541.08;117305;1186;22633;-60
2022/07/17 04:58:57;;;;;;;6.30;2.60;;;;;;;23.94;49.86;100543.17;117355;1186;22959;-59
2022/07/17 05:01:24;;;;;;;4.40;2.60;;;;;;;24.01;49.72;100541.98;117146;1185;22899;-59
2022/07/17 05:03:51;;;;;;;4.30;3.20;;;;;;;24.11;49.77;100546.23;117310;1185;21845;-59
2022/07/17 05:06:18;;;;;;;4.00;2.50;;;;;;;24.21;49.82;100551.30;117369;1186;22721;-58
2022/07/17 05:08:46;;;;;;;4.10;2.60;;;;;;;24.31;49.88;100552.55;117132;1185;21925;-59
2022/07/17 05:11:13;;;;;;;5.70;2.90;;;;;;;24.43;49.93;100551.44;117027;1188;21941;-59
2022/07/17 05:13:40;;;;;;;7.30;3.20;;;;;;;24.55;49.79;100555.25;117309;1184;22923;-59
2022/07/17 05:16:07;;;;;;;4.10;2.60;;;;;;;24.65;49.63;100559.08;117340;1186;21891;-59
2022/07/17 05:18:34;;;;;;;4.50;2.40;;;;;;;24.76;49.65;100561.92;117346;1185;21902;-59
2022/07/17 05:21:01;;;;;;;3.90;2.50;;;;;;;24.86;49.49;100565.20;117173;1185;22622;-59
2022/07/17 05:23:28;;;;;;;3.70;2.10;;;;;;;24.97;49.40;100565.69;117365;1185;21870;-59
2022/07/17 05:25:56;;;;;;;4.00;2.40;;;;;;;25.08;49.37;100566.75;117373;1186;21895;-60
2022/07/17 05:28:23;;;;;;;5.80;2.50;;;;;;;25.18;49.22;100565.67;117290;1182;21909;-60
2022/07/17 05:30:49;;;;;;;3.70;2.30;;;;;;;25.29;49.10;100562.95;117196;1186;22708;-61
2022/07/17 05:33:16;;;;;;;5.80;2.40;;;;;;;25.39;49.14;100559.86;117259;1184;22860;-61
2022/07/17 05:35:44;;;;;;;5.10;2.50;;;;;;;25.50;49.07;100561.27;117301;1188;22981;-60
2022/07/17 05:38:11;;;;;;;4.80;2.00;;;;;;;25.62;48.97;100562.73;117294;1183;23555;-60
2022/07/17 05:40:37;;;;;;;4.80;2.20;;;;;;;25.75;49.06;100560.16;117307;1185;22912;-60
2022/07/17 05:43:04;;;;;;;3.80;2.40;;;;;;;25.88;48.93;100558.20;117307;1183;23553;-60
2022/07/17 05:45:31;;;;;;;3.40;2.00;;;;;;;25.97;48.54;100557.66;117333;1184;21946;-61
2022/07/17 05:47:58;;;;;;;2.90;2.40;;;;;;;26.05;48.49;100563.20;117287;1186;21888;-60
2022/07/17 05:50:25;;;;;;;4.00;2.20;;;;;;;26.11;48.44;100567.05;117244;1183;23556;-61
2022/07/17 05:52:52;;;;;;;4.10;2.40;;;;;;;26.15;48.05;100570.77;117291;1186;22960;-60
2022/07/17 05:55:19;;;;;;;5.70;2.70;;;;;;;26.16;47.96;100575.75;117262;1186;22029;-59
2022/07/17 05:57:46;;;;;;;5.40;2.60;;;;;;;26.14;47.99;100578.77;117273;1185;21960;-60
2022/07/17 06:00:13;;;;;;;4.70;2.50;;;;;;;26.11;47.98;100578.35;117254;1186;22939;-61
2022/07/17 06:02:40;;;;;;;4.80;2.60;;;;;;;26.07;47.90;100578.48;117211;1188;21855;-61
2022/07/17 06:05:08;;;;;;;3.00;2.30;;;;;;;26.10;47.85;100578.81;117221;1182;22622;-61
2022/07/17 06:07:35;;;;;;;4.40;2.20;;;;;;;26.19;47.80;100577.52;117313;1184;23627;-61
2022/07/17 06:10:03;;;;;;;6.20;2.30;;;;;;;26.30;47.78;100577.39;117296;1185;22918;-60
2022/07/17 06:12:30;;;;;;;4.30;2.30;;;;;;;26.49;47.90;100582.43;117360;1184;23557;-60
2022/07/17 06:14:57;;;;;;;4.20;2.50;;;;;;;26.65;47.57;100582.27;117326;1182;22081;-60
2022/07/17 06:17:25;;;;;;;9.10;4.80;;;;;;;26.84;47.27;100582.11;117327;1186;23810;-60
2022/07/17 06:19:52;;;;;;;10.00;7.50;;;;;;;27.06;47.14;100582.21;117287;1186;21854;-61
2022/07/17 06:22:19;;;;;;;6.80;4.60;;;;;;;27.22;47.22;100580.79;117312;1186;22824;-59
2022/07/17 06:24:46;;;;;;;3.70;2.80;;;;;;;27.47;47.51;100579.38;117326;1185;23705;-61
2022/07/17 06:27:13;;;;;;;7.30;2.60;;;;;;;27.73;46.87;100581.45;117309;1189;22920;-59
2022/07/17 06:29:40;;;;;;;5.70;2.60;;;;;;;27.91;46.59;100591.70;117338;1180;21848;-59
2022/07/17 06:44:59;;;;;;;5.30;2.40;;;;;;;28.25;46.07;100597.05;115272;1203;547609;-60
2022/07/17 06:47:26;;;;;;;4.70;2.10;;;;;;;29.01;45.12;100604.34;116783;1192;21860;-60
2022/07/17 06:49:53;;;;;;;5.80;2.30;;;;;;;29.18;44.75;100610.85;116776;1186;22723;-59
2022/07/17 06:52:20;;;;;;;4.00;2.50;;;;;;;29.40;44.59;100610.04;116709;1191;23570;-60
2022/07/17 06:54:53;;;;;;;3.10;2.00;;;;;;;29.61;44.22;100611.25;116767;1191;21867;-60
2022/07/17 06:57:20;;;;;;;4.80;2.00;;;;;;;29.73;44.03;100613.12;116798;1186;23578;-61
2022/07/17 06:59:47;;;;;;;5.90;2.00;;;;;;;29.86;43.41;100615.73;116703;1192;23564;-60
2022/07/17 07:02:14;;;;;;;4.40;2.10;;;;;;;30.00;42.85;100617.58;116764;1190;21962;-60
2022/07/17 07:04:43;;;;;;;3.60;2.10;;;;;;;30.12;42.66;100614.83;116721;1186;21873;-59
2022/07/17 07:07:11;;;;;;;6.10;2.80;;;;;;;30.31;42.27;100617.27;116810;1184;22924;-58
2022/07/17 07:09:38;;;;;;;3.60;2.30;;;;;;;30.49;42.37;100614.36;116796;1189;22897;-59
2022/07/17 07:12:05;;;;;;;5.60;2.40;;;;;;;30.59;41.30;100614.31;116638;1186;22645;-60
2022/07/17 07:14:32;;;;;;;5.10;2.30;;;;;;;30.69;41.26;100614.86;116777;1190;22648;-60
2022/07/17 07:16:59;;;;;;;3.40;2.40;;;;;;;30.80;41.34;100612.90;116588;1189;22927;-60
2022/07/17 07:19:27;;;;;;;4.20;2.20;;;;;;;30.94;40.54;100616.70;116709;1190;21862;-60
2022/07/17 07:21:54;;;;;;;6.00;1.50;;;;;;;30.93;39.71;100620.59;116644;1191;21865;-60
2022/07/17 07:24:21;;;;;;;4.50;1.80;;;;;;;30.83;38.56;100622.63;116809;1189;23668;-61
2022/07/17 07:26:48;;;;;;;10.50;2.10;;;;;;;30.73;37.75;100623.20;116779;1189;22910;-60
2022/07/17 07:29:15;;;;;;;3.20;1.30;;;;;;;30.69;38.15;100619.36;116685;1192;22089;-60
2022/07/17 07:31:43;;;;;;;3.60;1.50;;;;;;;30.74;38.40;100617.16;116822;1191;21933;-60
2022/07/17 07:34:11;;;;;;;2.80;1.20;;;;;;;30.82;38.03;100618.55;116738;1189;22982;-61
2022/07/17 07:36:38;;;;;;;3.10;1.40;;;;;;;30.96;38.49;100620.98;116727;1186;22912;-61
2022/07/17 07:39:05;;;;;;;3.40;1.10;;;;;;;31.03;37.23;100619.15;116667;1188;22802;-59
2022/07/17 07:41:32;;;;;;;3.20;1.40;;;;;;;30.98;37.58;100619.42;116666;1192;21887;-59
2022/07/17 07:43:59;;;;;;;2.90;1.40;;;;;;;31.10;37.51;100614.27;116720;1191;21878;-60
2022/07/17 07:46:26;;;;;;;2.90;1.20;;;;;;;31.33;37.34;100615.70;116693;1191;21869;-60
2022/07/17 07:48:54;;;;;;;3.50;1.30;;;;;;;31.51;36.65;100606.62;116652;1192;22185;-61
2022/07/17 07:51:21;;;;;;;2.20;1.40;;;;;;;31.61;36.38;100604.73;116699;1189;23451;-60
2022/07/17 07:54:08;;;;;;;4.40;1.20;;;;;;;31.70;35.61;100607.21;116506;1189;22105;-62
2022/07/17 07:56:36;;;;;;;3.00;1.50;;;;;;;31.82;35.03;100609.51;116735;1191;23718;-60
2022/07/17 07:59:04;;;;;;;4.50;1.50;;;;;;;31.93;34.28;100609.02;116641;1190;22917;-58
2022/07/17 08:01:31;;;;;;;3.40;1.40;;;;;;;31.90;34.76;100607.88;116738;1191;22933;-61
2022/07/17 08:03:58;;;;;;;2.10;1.10;;;;;;;31.95;34.74;100611.23;116724;1188;23474;-59
2022/07/17 08:06:25;;;;;;;3.20;1.50;;;;;;;32.07;34.32;100611.43;116570;1191;21879;-59
2022/07/17 08:08:52;;;;;;;12.40;1.70;;;;;;;32.28;34.41;100612.84;116521;1187;22975;-59
2022/07/17 08:11:19;;;;;;;6.10;1.80;;;;;;;32.41;33.20;100616.09;116517;1187;22853;-59
2022/07/17 08:13:46;;;;;;;2.90;1.60;;;;;;;32.42;32.21;100620.88;116729;1191;21958;-59
2022/07/17 08:16:14;;;;;;;1.60;1.20;;;;;;;32.30;31.88;100619.55;116669;1190;22875;-59
2022/07/17 08:18:41;;;;;;;7.80;3.60;;;;;;;32.22;32.65;100622.11;116717;1192;21970;-60
2022/07/17 08:21:08;;;;;;;3.20;1.80;;;;;;;32.18;32.98;100623.77;116699;1190;21850;-60
2022/07/17 08:23:35;;;;;;;5.50;1.30;;;;;;;32.22;32.85;100622.66;117139;1185;23008;-59
2022/07/17 08:26:02;;;;;;;3.80;2.10;;;;;;;32.42;32.90;100621.98;116976;1185;22658;-59
2022/07/17 08:28:36;;;;;;;3.20;1.20;;;;;;;32.66;32.74;100618.27;116922;1189;21871;-59
2022/07/17 08:31:05;;;;;;;2.20;1.40;;;;;;;32.85;32.90;100614.86;117130;1186;21868;-60
2022/07/17 08:33:32;;;;;;;6.10;1.40;;;;;;;33.01;32.32;100616.54;117017;1186;23463;-60
2022/07/17 08:35:59;;;;;;;2.00;1.20;;;;;;;33.11;31.89;100619.26;116882;1183;21910;-60
2022/07/17 08:38:26;;;;;;;4.70;1.50;;;;;;;33.21;32.10;100614.48;116852;1186;23082;-60
2022/07/17 08:40:54;;;;;;;3.60;1.50;;;;;;;33.26;30.82;100617.81;116923;1184;21859;-60
2022/07/17 08:43:22;;;;;;;2.40;1.20;;;;;;;33.28;30.90;100615.23;116960;1187;21876;-60
2022/07/17 08:45:49;;;;;;;2.20;1.30;;;;;;;33.37;29.58;100615.90;117042;1186;22911;-60
2022/07/17 08:48:17;;;;;;;4.70;1.80;;;;;;;33.34;29.08;100618.40;117052;1186;22875;-59
2022/07/17 09:01:30;;;;;;;4.50;1.50;;;;;;;33.15;29.45;100624.33;115118;1203;547832;-59
2022/07/17 09:15:16;;;;;;;2.90;1.30;;;;;;;33.98;29.31;100631.14;115227;1204;548027;-66
2022/07/17 09:17:54;;;;;;;2.20;1.30;;;;;;;34.83;28.49;100630.98;116916;1189;21872;-68
2022/07/17 09:20:21;;;;;;;3.20;1.50;;;;;;;35.07;28.47;100626.41;116776;1191;21859;-60
2022/07/17 09:23:02;;;;;;;4.00;1.30;;;;;;;35.21;27.38;100623.99;116721;1190;21897;-59
2022/07/17 09:25:34;;;;;;;3.20;1.30;;;;;;;35.22;28.42;100627.54;116664;1191;21924;-60
2022/07/17 09:28:03;;;;;;;2.00;1.30;;;;;;;35.40;27.94;100621.33;116721;1191;23643;-67
2022/07/17 09:30:31;;;;;;;1.80;1.30;;;;;;;35.61;27.15;100626.65;116812;1189;22930;-60
2022/07/17 09:32:58;;;;;;;2.30;1.00;;;;;;;35.73;27.98;100624.69;116904;1189;22891;-60
2022/07/17 09:35:25;;;;;;;2.90;1.40;;;;;;;35.82;27.53;100624.15;116672;1191;23647;-60
2022/07/17 09:37:53;;;;;;;2.60;1.20;;;;;;;35.90;27.86;100626.55;116754;1191;21977;-68
2022/07/17 09:43:13;;;;;;;4.60;1.50;;;;;;;36.45;27.75;100620.35;116661;1189;22651;-65
2022/07/17 09:45:40;;;;;;;6.30;2.20;;;;;;;36.56;25.68;100625.59;116788;1191;22904;-65
2022/07/17 09:48:06;;;;;;;4.00;1.90;;;;;;;36.31;26.08;100629.80;116728;1186;22645;-60
2022/07/17 09:50:33;;;;;;;5.40;1.50;;;;;;;36.23;26.44;100633.65;116685;1192;22918;-67
2022/07/17 09:53:01;;;;;;;4.00;1.40;;;;;;;36.27;25.94;100636.08;116619;1189;21862;-60
2022/07/17 09:55:30;;;;;;;3.60;1.40;;;;;;;36.48;26.08;100628.34;116768;1189;21898;-60
2022/07/17 09:58:16;;;;;;;1.80;1.30;;;;;;;36.74;26.30;100629.51;116775;1189;23455;-67
2022/07/17 10:00:43;;;;;;;2.00;1.30;;;;;;;36.91;26.21;100627.27;116777;1191;22921;-66
2022/07/17 10:03:10;;;;;;;2.90;1.60;;;;;;;37.13;25.68;100632.38;116842;1189;21850;-66
2022/07/17 10:05:37;;;;;;;3.30;1.60;;;;;;;37.34;25.60;100634.38;116808;1192;23554;-67
2022/07/17 10:08:11;;;;;;;2.60;1.50;;;;;;;37.51;25.13;100626.21;116733;1191;21869;-67
2022/07/17 10:10:39;;;;;;;3.10;1.50;;;;;;;37.64;25.40;100625.16;116797;1191;22001;-65
2022/07/17 10:13:06;;;;;;;3.10;1.30;;;;;;;37.87;24.79;100627.27;116571;1192;22047;-62
2022/07/17 10:15:33;;;;;;;3.70;1.50;;;;;;;38.05;24.82;100629.65;116519;1189;21918;-61
2022/07/17 10:18:07;;;;;;;3.70;1.40;;;;;;;38.17;24.31;100634.59;116720;1187;22911;-61
2022/07/17 10:20:34;;;;;;;2.30;1.30;;;;;;;37.93;23.44;100642.13;116725;1191;21914;-67
2022/07/17 10:23:11;;;;;;;3.20;1.30;;;;;;;37.50;24.35;100639.88;116740;1187;23635;-68
2022/07/17 10:25:38;;;;;;;2.80;1.40;;;;;;;37.24;24.65;100635.92;116756;1191;22922;-61
2022/07/17 10:28:07;;;;;;;2.60;1.40;;;;;;;36.98;23.60;100632.80;116689;1191;21907;-68
2022/07/17 10:30:34;;;;;;;2.80;1.50;;;;;;;36.84;24.40;100637.06;116750;1191;21851;-68
2022/07/17 10:33:05;;;;;;;6.30;1.40;;;;;;;36.77;23.20;100638.84;116697;1192;21863;-68
2022/07/17 10:35:45;;;;;;;5.30;1.40;;;;;;;36.71;24.04;100631.98;116746;1189;22962;-61
2022/07/17 10:38:13;;;;;;;4.10;1.40;;;;;;;36.72;22.52;100634.52;116889;1189;22625;-66
2022/07/17 10:40:41;;;;;;;4.40;1.80;;;;;;;36.66;23.41;100632.12;116799;1186;22931;-60
2022/07/17 10:43:08;;;;;;;5.10;1.50;;;;;;;36.73;23.82;100629.71;116766;1189;21880;-61
2022/07/17 10:45:39;;;;;;;3.50;1.50;;;;;;;36.94;23.65;100632.42;116867;1190;22103;-61
2022/07/17 10:48:14;;;;;;;3.90;1.50;;;;;;;36.93;23.01;100628.89;116680;1189;23376;-60
2022/07/17 10:50:46;;;;;;;6.60;1.50;;;;;;;37.02;23.33;100624.28;116717;1191;22741;-60
2022/07/17 10:53:30;;;;;;;4.70;1.80;;;;;;;37.18;23.13;100624.18;118731;1189;21846;-67
2022/07/17 10:56:05;;;;;;;3.80;1.70;;;;;;;37.22;22.19;100622.77;118848;1189;21800;-62
2022/07/17 10:58:37;;;;;;;5.10;1.80;;;;;;;37.14;22.04;100627.66;117363;1191;23643;-67
2022/07/17 11:01:14;;;;;;;4.80;2.10;;;;;;;36.77;22.35;100623.23;117348;1190;21861;-61
2022/07/17 11:03:51;;;;;;;8.60;2.20;;;;;;;36.73;22.61;100625.54;116730;1191;22934;-70
2022/07/17 11:06:20;;;;;;;9.60;2.30;;;;;;;36.79;22.32;100624.48;116757;1191;22650;-68
2022/07/17 11:09:00;;;;;;;10.20;2.10;;;;;;;36.69;22.20;100628.09;116833;1190;22626;-61
2022/07/17 11:11:50;;;;;;;4.90;2.00;;;;;;;36.44;23.14;100629.37;116778;1189;21873;-61
2022/07/17 11:14:25;;;;;;;3.20;1.30;;;;;;;36.32;23.33;100631.84;116748;1187;22954;-70
2022/07/17 11:16:54;;;;;;;3.40;1.40;;;;;;;36.18;23.03;100627.25;116591;1192;22940;-70
2022/07/17 11:19:22;;;;;;;1.90;1.40;;;;;;;36.16;23.35;100625.93;116731;1187;22956;-66
2022/07/17 11:21:50;;;;;;;2.30;1.60;;;;;;;36.22;23.13;100630.34;116743;1189;21865;-62
2022/07/17 11:24:17;;;;;;;4.50;1.70;;;;;;;36.04;22.72;100635.70;116763;1190;23659;-65
2022/07/17 11:26:45;;;;;;;4.80;1.80;;;;;;;35.77;22.52;100636.63;116782;1191;21854;-70
2022/07/17 11:29:12;;;;;;;3.70;2.00;;;;;;;35.53;22.75;100633.66;116713;1189;22917;-68
2022/07/17 11:31:39;;;;;;;3.40;1.60;;;;;;;35.29;21.77;100636.77;116692;1189;23100;-62
2022/07/17 11:34:08;;;;;;;2.80;1.60;;;;;;;35.20;21.69;100636.89;116731;1190;24170;-70
2022/07/17 11:36:40;;;;;;;5.00;2.00;;;;;;;35.25;21.96;100633.97;116617;1190;21862;-61
2022/07/17 11:39:10;;;;;;;12.30;2.40;;;;;;;35.10;21.92;100636.70;116818;1189;22728;-61
2022/07/17 11:41:38;;;;;;;3.10;1.60;;;;;;;34.82;22.10;100633.79;116782;1192;21863;-66
2022/07/17 11:44:09;;;;;;;3.40;1.70;;;;;;;34.78;22.41;100636.38;116807;1191;23646;-67
2022/07/17 11:46:37;;;;;;;6.80;2.10;;;;;;;34.90;22.26;100634.04;117603;1190;22914;-69
2022/07/17 11:49:04;;;;;;;3.30;1.70;;;;;;;35.02;22.00;100639.38;116782;1192;22648;-67
2022/07/17 11:51:34;;;;;;;4.40;1.70;;;;;;;35.08;21.64;100645.28;116682;1191;23562;-62
2022/07/17 11:54:15;;;;;;;3.40;1.70;;;;;;;35.00;21.94;100645.61;116759;1192;21854;-61
2022/07/17 11:56:53;;;;;;;4.90;1.50;;;;;;;34.91;21.81;100643.41;116813;1188;21871;-69
2022/07/17 11:59:33;;;;;;;3.00;1.50;;;;;;;34.80;21.75;100645.27;116631;1189;22934;-69